sensor_id;sensor_type;location;lat;lon;timestamp;P1;durP1;ratioP1;P2;durP2;ratioP2
66380;SDS011;53177;52.648;1.214;2022-07-01T00:00:26;4.50;;;1.30;;
66380;SDS011;53177;52.648;1.214;2022-07-01T00:02:53;4.32;;;1.30;;
66380;SDS011;53177;52.648;1.214;2022-07-01T00:05:18;5.07;;;1.70;;
66380;SDS011;53177;52.648;1.214;2022-07-01T00:07:44;4.32;;;1.40;;
66380;SDS011;53177;52.648;1.214;2022-07-01T00:10:11;4.27;;;1.33;;
66380;SDS011;53177;52.648;1.214;2022-07-01T00:12:38;3.78;;;1.10;;
66380;SDS011;53177;52.648;1.214;2022-07-01T00:15:04;5.80;;;1.30;;
66380;SDS011;53177;52.648;1.214;2022-07-01T00:17:31;4.50;;;1.20;;
66380;SDS011;53177;52.648;1.214;2022-07-01T00:19:57;4.32;;;1.38;;
66380;SDS011;53177;52.648;1.214;2022-07-01T00:22:22;4.30;;;1.30;;
66380;SDS011;53177;52.648;1.214;2022-07-01T00:24:47;4.77;;;1.10;;
66380;SDS011;53177;52.648;1.214;2022-07-01T00:27:13;4.40;;;1.60;;
66380;SDS011;53177;52.648;1.214;2022-07-01T00:29:39;4.67;;;1.30;;
66380;SDS011;53177;52.648;1.214;2022-07-01T00:32:05;3.97;;;1.20;;
66380;SDS011;53177;52.648;1.214;2022-07-01T00:34:31;4.33;;;1.40;;
66380;SDS011;53177;52.648;1.214;2022-07-01T00:36:56;6.23;;;1.47;;
66380;SDS011;53177;52.648;1.214;2022-07-01T00:39:21;4.40;;;1.50;;
66380;SDS011;53177;52.648;1.214;2022-07-01T00:41:47;3.60;;;1.40;;
66380;SDS011;53177;52.648;1.214;2022-07-01T00:44:16;4.70;;;1.50;;
66380;SDS011;53177;52.648;1.214;2022-07-01T00:46:44;4.60;;;1.33;;
66380;SDS011;53177;52.648;1.214;2022-07-01T00:49:10;3.97;;;1.13;;
66380;SDS011;53177;52.648;1.214;2022-07-01T00:51:36;4.05;;;1.50;;
66380;SDS011;53177;52.648;1.214;2022-07-01T00:54:02;5.63;;;1.67;;
66380;SDS011;53177;52.648;1.214;2022-07-01T00:56:28;4.50;;;1.80;;
66380;SDS011;53177;52.648;1.214;2022-07-01T00:58:54;4.83;;;1.50;;
66380;SDS011;53177;52.648;1.214;2022-07-01T01:01:20;6.30;;;1.80;;
66380;SDS011;53177;52.648;1.214;2022-07-01T01:03:47;5.25;;;2.03;;
66380;SDS011;53177;52.648;1.214;2022-07-01T01:06:12;6.87;;;2.10;;
66380;SDS011;53177;52.648;1.214;2022-07-01T01:08:38;4.35;;;1.83;;
66380;SDS011;53177;52.648;1.214;2022-07-01T01:11:03;5.95;;;2.10;;
66380;SDS011;53177;52.648;1.214;2022-07-01T01:13:29;4.45;;;1.88;;
66380;SDS011;53177;52.648;1.214;2022-07-01T01:15:55;5.50;;;1.93;;
66380;SDS011;53177;52.648;1.214;2022-07-01T01:18:20;6.53;;;1.80;;
66380;SDS011;53177;52.648;1.214;2022-07-01T01:20:46;4.87;;;2.00;;
66380;SDS011;53177;52.648;1.214;2022-07-01T01:23:11;5.07;;;2.10;;
66380;SDS011;53177;52.648;1.214;2022-07-01T01:25:37;6.23;;;1.93;;
66380;SDS011;53177;52.648;1.214;2022-07-01T01:28:02;5.40;;;2.27;;
66380;SDS011;53177;52.648;1.214;2022-07-01T01:30:28;5.60;;;2.20;;
66380;SDS011;53177;52.648;1.214;2022-07-01T01:32:54;6.20;;;2.53;;
66380;SDS011;53177;52.648;1.214;2022-07-01T01:35:20;6.53;;;2.00;;
66380;SDS011;53177;52.648;1.214;2022-07-01T01:37:46;8.05;;;2.38;;
66380;SDS011;53177;52.648;1.214;2022-07-01T01:40:12;9.10;;;2.88;;
66380;SDS011;53177;52.648;1.214;2022-07-01T01:42:39;8.48;;;2.83;;
66380;SDS011;53177;52.648;1.214;2022-07-01T01:45:05;5.20;;;2.05;;
66380;SDS011;53177;52.648;1.214;2022-07-01T01:47:31;4.90;;;1.88;;
66380;SDS011;53177;52.648;1.214;2022-07-01T01:49:56;5.82;;;2.50;;
66380;SDS011;53177;52.648;1.214;2022-07-01T01:52:22;4.17;;;1.80;;
66380;SDS011;53177;52.648;1.214;2022-07-01T01:54:47;5.67;;;2.00;;
66380;SDS011;53177;52.648;1.214;2022-07-01T01:57:13;5.15;;;2.28;;
66380;SDS011;53177;52.648;1.214;2022-07-01T01:59:39;4.68;;;2.10;;
66380;SDS011;53177;52.648;1.214;2022-07-01T02:02:04;7.55;;;2.53;;
66380;SDS011;53177;52.648;1.214;2022-07-01T02:04:30;6.83;;;1.90;;
66380;SDS011;53177;52.648;1.214;2022-07-01T02:06:56;6.18;;;2.10;;
66380;SDS011;53177;52.648;1.214;2022-07-01T02:09:22;8.57;;;2.93;;
66380;SDS011;53177;52.648;1.214;2022-07-01T02:11:47;7.28;;;2.22;;
66380;SDS011;53177;52.648;1.214;2022-07-01T02:14:13;5.93;;;2.33;;
66380;SDS011;53177;52.648;1.214;2022-07-01T02:16:38;6.60;;;2.47;;
66380;SDS011;53177;52.648;1.214;2022-07-01T02:19:04;7.30;;;2.43;;
66380;SDS011;53177;52.648;1.214;2022-07-01T02:21:29;6.32;;;2.08;;
66380;SDS011;53177;52.648;1.214;2022-07-01T02:23:54;9.27;;;2.80;;
66380;SDS011;53177;52.648;1.214;2022-07-01T02:26:20;7.80;;;2.50;;
66380;SDS011;53177;52.648;1.214;2022-07-01T02:28:46;7.53;;;3.17;;
66380;SDS011;53177;52.648;1.214;2022-07-01T02:31:12;5.88;;;2.60;;
66380;SDS011;53177;52.648;1.214;2022-07-01T02:33:37;8.50;;;3.30;;
66380;SDS011;53177;52.648;1.214;2022-07-01T02:36:03;8.70;;;3.03;;
66380;SDS011;53177;52.648;1.214;2022-07-01T02:38:28;7.07;;;3.07;;
66380;SDS011;53177;52.648;1.214;2022-07-01T02:40:54;7.28;;;2.45;;
66380;SDS011;53177;52.648;1.214;2022-07-01T02:43:19;5.93;;;2.50;;
66380;SDS011;53177;52.648;1.214;2022-07-01T02:45:45;7.60;;;2.60;;
66380;SDS011;53177;52.648;1.214;2022-07-01T02:48:10;6.43;;;2.70;;
66380;SDS011;53177;52.648;1.214;2022-07-01T02:50:36;5.35;;;2.35;;
66380;SDS011;53177;52.648;1.214;2022-07-01T02:53:01;7.38;;;2.67;;
66380;SDS011;53177;52.648;1.214;2022-07-01T02:55:26;7.43;;;2.70;;
66380;SDS011;53177;52.648;1.214;2022-07-01T02:57:54;5.63;;;2.63;;
66380;SDS011;53177;52.648;1.214;2022-07-01T03:00:21;6.43;;;2.50;;
66380;SDS011;53177;52.648;1.214;2022-07-01T03:02:49;6.88;;;2.60;;
66380;SDS011;53177;52.648;1.214;2022-07-01T03:05:17;7.07;;;2.92;;
66380;SDS011;53177;52.648;1.214;2022-07-01T03:07:44;8.73;;;2.70;;
66380;SDS011;53177;52.648;1.214;2022-07-01T03:10:10;7.37;;;2.50;;
66380;SDS011;53177;52.648;1.214;2022-07-01T03:12:36;6.28;;;2.67;;
66380;SDS011;53177;52.648;1.214;2022-07-01T03:15:08;6.40;;;2.70;;
66380;SDS011;53177;52.648;1.214;2022-07-01T03:17:38;6.43;;;2.70;;
66380;SDS011;53177;52.648;1.214;2022-07-01T03:20:05;5.78;;;2.40;;
66380;SDS011;53177;52.648;1.214;2022-07-01T03:22:32;6.22;;;2.75;;
66380;SDS011;53177;52.648;1.214;2022-07-01T03:24:58;7.05;;;2.70;;
66380;SDS011;53177;52.648;1.214;2022-07-01T03:27:25;5.27;;;2.40;;
66380;SDS011;53177;52.648;1.214;2022-07-01T03:29:52;7.78;;;3.00;;
66380;SDS011;53177;52.648;1.214;2022-07-01T03:32:17;5.73;;;2.40;;
66380;SDS011;53177;52.648;1.214;2022-07-01T03:34:44;6.63;;;2.90;;
66380;SDS011;53177;52.648;1.214;2022-07-01T03:37:12;6.40;;;2.70;;
66380;SDS011;53177;52.648;1.214;2022-07-01T03:39:38;8.32;;;2.70;;
66380;SDS011;53177;52.648;1.214;2022-07-01T03:42:05;8.32;;;2.50;;
66380;SDS011;53177;52.648;1.214;2022-07-01T03:44:32;7.00;;;2.80;;
66380;SDS011;53177;52.648;1.214;2022-07-01T03:46:58;7.22;;;3.05;;
66380;SDS011;53177;52.648;1.214;2022-07-01T03:49:23;6.22;;;2.75;;
66380;SDS011;53177;52.648;1.214;2022-07-01T03:51:50;6.75;;;2.90;;
66380;SDS011;53177;52.648;1.214;2022-07-01T03:54:16;6.15;;;2.42;;
66380;SDS011;53177;52.648;1.214;2022-07-01T03:57:03;7.28;;;2.75;;
66380;SDS011;53177;52.648;1.214;2022-07-01T03:59:34;5.75;;;2.60;;
66380;SDS011;53177;52.648;1.214;2022-07-01T04:02:04;7.88;;;3.08;;
66380;SDS011;53177;52.648;1.214;2022-07-01T04:04:30;6.68;;;3.10;;
66380;SDS011;53177;52.648;1.214;2022-07-01T04:06:58;7.18;;;3.00;;
66380;SDS011;53177;52.648;1.214;2022-07-01T04:09:24;8.40;;;3.25;;
66380;SDS011;53177;52.648;1.214;2022-07-01T04:11:51;7.85;;;3.17;;
66380;SDS011;53177;52.648;1.214;2022-07-01T04:14:17;9.07;;;3.53;;
66380;SDS011;53177;52.648;1.214;2022-07-01T04:16:43;8.33;;;2.90;;
66380;SDS011;53177;52.648;1.214;2022-07-01T04:19:09;7.78;;;3.22;;
66380;SDS011;53177;52.648;1.214;2022-07-01T04:21:35;8.45;;;3.28;;
66380;SDS011;53177;52.648;1.214;2022-07-01T04:24:20;5.82;;;2.83;;
66380;SDS011;53177;52.648;1.214;2022-07-01T04:26:47;9.23;;;3.50;;
66380;SDS011;53177;52.648;1.214;2022-07-01T04:29:13;6.80;;;3.22;;
66380;SDS011;53177;52.648;1.214;2022-07-01T04:31:39;7.55;;;3.72;;
66380;SDS011;53177;52.648;1.214;2022-07-01T04:34:05;8.23;;;3.60;;
66380;SDS011;53177;52.648;1.214;2022-07-01T04:36:32;7.88;;;3.45;;
66380;SDS011;53177;52.648;1.214;2022-07-01T04:38:57;8.57;;;3.27;;
66380;SDS011;53177;52.648;1.214;2022-07-01T04:41:23;6.50;;;3.35;;
66380;SDS011;53177;52.648;1.214;2022-07-01T04:44:08;11.15;;;4.03;;
66380;SDS011;53177;52.648;1.214;2022-07-01T04:46:33;11.73;;;4.00;;
66380;SDS011;53177;52.648;1.214;2022-07-01T04:48:59;9.32;;;4.03;;
66380;SDS011;53177;52.648;1.214;2022-07-01T04:51:25;8.87;;;3.47;;
66380;SDS011;53177;52.648;1.214;2022-07-01T04:53:50;8.00;;;3.53;;
66380;SDS011;53177;52.648;1.214;2022-07-01T04:56:15;9.95;;;3.50;;
66380;SDS011;53177;52.648;1.214;2022-07-01T04:58:41;7.60;;;3.73;;
66380;SDS011;53177;52.648;1.214;2022-07-01T05:01:10;9.47;;;3.80;;
66380;SDS011;53177;52.648;1.214;2022-07-01T05:03:48;9.75;;;4.50;;
66380;SDS011;53177;52.648;1.214;2022-07-01T05:06:13;9.65;;;4.03;;
66380;SDS011;53177;52.648;1.214;2022-07-01T05:08:39;9.23;;;4.20;;
66380;SDS011;53177;52.648;1.214;2022-07-01T05:11:04;10.15;;;4.60;;
66380;SDS011;53177;52.648;1.214;2022-07-01T05:13:31;9.73;;;4.53;;
66380;SDS011;53177;52.648;1.214;2022-07-01T05:15:58;10.85;;;4.32;;
66380;SDS011;53177;52.648;1.214;2022-07-01T05:18:24;10.77;;;4.93;;
66380;SDS011;53177;52.648;1.214;2022-07-01T05:21:08;11.43;;;5.10;;
66380;SDS011;53177;52.648;1.214;2022-07-01T05:23:52;11.48;;;4.90;;
66380;SDS011;53177;52.648;1.214;2022-07-01T05:26:17;13.13;;;5.33;;
66380;SDS011;53177;52.648;1.214;2022-07-01T05:28:43;15.65;;;5.60;;
66380;SDS011;53177;52.648;1.214;2022-07-01T05:31:09;16.60;;;5.75;;
66380;SDS011;53177;52.648;1.214;2022-07-01T05:33:35;16.13;;;6.50;;
66380;SDS011;53177;52.648;1.214;2022-07-01T05:36:01;13.25;;;5.45;;
66380;SDS011;53177;52.648;1.214;2022-07-01T05:38:27;14.17;;;5.27;;
66380;SDS011;53177;52.648;1.214;2022-07-01T05:40:53;18.05;;;6.47;;
66380;SDS011;53177;52.648;1.214;2022-07-01T05:43:18;19.98;;;6.97;;
66380;SDS011;53177;52.648;1.214;2022-07-01T05:45:45;15.88;;;5.95;;
66380;SDS011;53177;52.648;1.214;2022-07-01T05:48:10;21.92;;;7.13;;
66380;SDS011;53177;52.648;1.214;2022-07-01T05:50:36;13.30;;;5.67;;
66380;SDS011;53177;52.648;1.214;2022-07-01T05:53:02;9.10;;;3.83;;
66380;SDS011;53177;52.648;1.214;2022-07-01T05:55:27;9.93;;;3.97;;
66380;SDS011;53177;52.648;1.214;2022-07-01T05:57:53;9.45;;;4.25;;
66380;SDS011;53177;52.648;1.214;2022-07-01T06:00:19;15.17;;;6.00;;
66380;SDS011;53177;52.648;1.214;2022-07-01T06:02:45;10.48;;;4.28;;
66380;SDS011;53177;52.648;1.214;2022-07-01T06:05:11;10.53;;;4.37;;
66380;SDS011;53177;52.648;1.214;2022-07-01T06:07:38;11.80;;;4.57;;
66380;SDS011;53177;52.648;1.214;2022-07-01T06:10:07;13.23;;;4.80;;
66380;SDS011;53177;52.648;1.214;2022-07-01T06:12:35;10.27;;;4.00;;
66380;SDS011;53177;52.648;1.214;2022-07-01T06:15:00;14.87;;;5.50;;
66380;SDS011;53177;52.648;1.214;2022-07-01T06:17:26;11.10;;;4.70;;
66380;SDS011;53177;52.648;1.214;2022-07-01T06:19:51;9.52;;;4.05;;
66380;SDS011;53177;52.648;1.214;2022-07-01T06:22:18;11.83;;;4.63;;
66380;SDS011;53177;52.648;1.214;2022-07-01T06:24:45;9.88;;;3.65;;
66380;SDS011;53177;52.648;1.214;2022-07-01T06:27:12;7.03;;;3.00;;
66380;SDS011;53177;52.648;1.214;2022-07-01T06:29:37;12.77;;;5.37;;
66380;SDS011;53177;52.648;1.214;2022-07-01T06:32:03;7.53;;;3.33;;
66380;SDS011;53177;52.648;1.214;2022-07-01T06:34:30;7.65;;;3.20;;
66380;SDS011;53177;52.648;1.214;2022-07-01T06:36:56;10.82;;;4.03;;
66380;SDS011;53177;52.648;1.214;2022-07-01T06:39:25;13.68;;;5.57;;
66380;SDS011;53177;52.648;1.214;2022-07-01T06:41:50;6.63;;;2.90;;
66380;SDS011;53177;52.648;1.214;2022-07-01T06:44:16;6.53;;;2.85;;
66380;SDS011;53177;52.648;1.214;2022-07-01T06:46:42;9.05;;;3.42;;
66380;SDS011;53177;52.648;1.214;2022-07-01T06:49:07;7.05;;;3.03;;
66380;SDS011;53177;52.648;1.214;2022-07-01T06:51:33;7.97;;;3.00;;
66380;SDS011;53177;52.648;1.214;2022-07-01T06:53:58;6.77;;;3.10;;
66380;SDS011;53177;52.648;1.214;2022-07-01T06:56:24;8.63;;;3.10;;
66380;SDS011;53177;52.648;1.214;2022-07-01T06:58:49;6.82;;;2.95;;
66380;SDS011;53177;52.648;1.214;2022-07-01T07:01:15;12.70;;;4.50;;
66380;SDS011;53177;52.648;1.214;2022-07-01T07:03:40;16.90;;;5.20;;
66380;SDS011;53177;52.648;1.214;2022-07-01T07:06:06;7.88;;;3.22;;
66380;SDS011;53177;52.648;1.214;2022-07-01T07:08:31;6.97;;;2.77;;
66380;SDS011;53177;52.648;1.214;2022-07-01T07:10:57;9.60;;;3.37;;
66380;SDS011;53177;52.648;1.214;2022-07-01T07:13:24;10.38;;;4.40;;
66380;SDS011;53177;52.648;1.214;2022-07-01T07:15:49;7.95;;;2.83;;
66380;SDS011;53177;52.648;1.214;2022-07-01T07:18:15;10.80;;;3.67;;
66380;SDS011;53177;52.648;1.214;2022-07-01T07:20:41;9.87;;;3.70;;
66380;SDS011;53177;52.648;1.214;2022-07-01T07:23:06;11.32;;;3.63;;
66380;SDS011;53177;52.648;1.214;2022-07-01T07:25:32;6.10;;;2.07;;
66380;SDS011;53177;52.648;1.214;2022-07-01T07:27:57;5.80;;;2.10;;
66380;SDS011;53177;52.648;1.214;2022-07-01T07:30:23;6.15;;;2.42;;
66380;SDS011;53177;52.648;1.214;2022-07-01T07:32:49;6.17;;;2.60;;
66380;SDS011;53177;52.648;1.214;2022-07-01T07:35:15;5.13;;;2.33;;
66380;SDS011;53177;52.648;1.214;2022-07-01T07:37:40;12.20;;;3.80;;
66380;SDS011;53177;52.648;1.214;2022-07-01T07:40:07;8.85;;;3.00;;
66380;SDS011;53177;52.648;1.214;2022-07-01T07:42:37;8.80;;;2.58;;
66380;SDS011;53177;52.648;1.214;2022-07-01T07:45:03;5.17;;;1.73;;
66380;SDS011;53177;52.648;1.214;2022-07-01T07:47:31;5.32;;;1.42;;
66380;SDS011;53177;52.648;1.214;2022-07-01T07:49:57;6.32;;;1.92;;
66380;SDS011;53177;52.648;1.214;2022-07-01T07:52:22;9.37;;;2.67;;
66380;SDS011;53177;52.648;1.214;2022-07-01T07:54:48;7.93;;;2.20;;
66380;SDS011;53177;52.648;1.214;2022-07-01T07:57:13;6.07;;;1.80;;
66380;SDS011;53177;52.648;1.214;2022-07-01T07:59:39;10.73;;;3.17;;
66380;SDS011;53177;52.648;1.214;2022-07-01T08:02:04;9.20;;;2.60;;
66380;SDS011;53177;52.648;1.214;2022-07-01T08:04:30;6.57;;;1.43;;
66380;SDS011;53177;52.648;1.214;2022-07-01T08:06:55;6.43;;;1.50;;
66380;SDS011;53177;52.648;1.214;2022-07-01T08:09:21;3.83;;;1.27;;
66380;SDS011;53177;52.648;1.214;2022-07-01T08:11:46;7.33;;;1.90;;
66380;SDS011;53177;52.648;1.214;2022-07-01T08:14:11;5.33;;;1.10;;
66380;SDS011;53177;52.648;1.214;2022-07-01T08:16:37;4.97;;;1.10;;
66380;SDS011;53177;52.648;1.214;2022-07-01T08:19:03;16.03;;;4.53;;
66380;SDS011;53177;52.648;1.214;2022-07-01T08:21:28;6.33;;;1.60;;
66380;SDS011;53177;52.648;1.214;2022-07-01T08:23:54;6.35;;;1.67;;
66380;SDS011;53177;52.648;1.214;2022-07-01T08:26:20;4.77;;;1.10;;
66380;SDS011;53177;52.648;1.214;2022-07-01T08:28:46;4.60;;;1.13;;
66380;SDS011;53177;52.648;1.214;2022-07-01T08:31:11;4.47;;;1.00;;
66380;SDS011;53177;52.648;1.214;2022-07-01T08:33:37;12.37;;;4.03;;
66380;SDS011;53177;52.648;1.214;2022-07-01T08:36:03;12.73;;;3.28;;
66380;SDS011;53177;52.648;1.214;2022-07-01T08:38:29;4.18;;;1.33;;
66380;SDS011;53177;52.648;1.214;2022-07-01T08:40:55;8.50;;;2.70;;
66380;SDS011;53177;52.648;1.214;2022-07-01T08:43:20;4.57;;;1.40;;
66380;SDS011;53177;52.648;1.214;2022-07-01T08:45:46;4.30;;;1.40;;
66380;SDS011;53177;52.648;1.214;2022-07-01T08:48:15;5.20;;;1.60;;
66380;SDS011;53177;52.648;1.214;2022-07-01T08:50:40;5.40;;;1.93;;
66380;SDS011;53177;52.648;1.214;2022-07-01T08:53:07;6.27;;;1.73;;
66380;SDS011;53177;52.648;1.214;2022-07-01T08:55:34;4.05;;;1.50;;
66380;SDS011;53177;52.648;1.214;2022-07-01T08:58:18;4.65;;;1.70;;
66380;SDS011;53177;52.648;1.214;2022-07-01T09:00:44;4.97;;;1.80;;
66380;SDS011;53177;52.648;1.214;2022-07-01T09:03:10;5.07;;;1.77;;
66380;SDS011;53177;52.648;1.214;2022-07-01T09:05:35;5.60;;;1.87;;
66380;SDS011;53177;52.648;1.214;2022-07-01T09:08:02;5.22;;;2.00;;
66380;SDS011;53177;52.648;1.214;2022-07-01T09:10:29;6.53;;;2.30;;
66380;SDS011;53177;52.648;1.214;2022-07-01T09:12:56;13.13;;;3.90;;
66380;SDS011;53177;52.648;1.214;2022-07-01T09:15:24;6.03;;;1.98;;
66380;SDS011;53177;52.648;1.214;2022-07-01T09:17:51;10.65;;;3.78;;
66380;SDS011;53177;52.648;1.214;2022-07-01T09:20:25;8.68;;;2.85;;
66380;SDS011;53177;52.648;1.214;2022-07-01T09:25:57;10.03;;;3.20;;
66380;SDS011;53177;52.648;1.214;2022-07-01T09:28:23;6.57;;;2.30;;
66380;SDS011;53177;52.648;1.214;2022-07-01T09:30:52;10.23;;;4.20;;
66380;SDS011;53177;52.648;1.214;2022-07-01T09:35:49;6.55;;;2.20;;
66380;SDS011;53177;52.648;1.214;2022-07-01T09:38:16;5.20;;;2.20;;
66380;SDS011;53177;52.648;1.214;2022-07-01T09:41:05;4.80;;;1.92;;
66380;SDS011;53177;52.648;1.214;2022-07-01T09:43:32;4.40;;;2.05;;
66380;SDS011;53177;52.648;1.214;2022-07-01T09:48:41;5.77;;;2.63;;
66380;SDS011;53177;52.648;1.214;2022-07-01T09:51:09;5.57;;;2.45;;
66380;SDS011;53177;52.648;1.214;2022-07-01T09:53:36;5.72;;;2.30;;
66380;SDS011;53177;52.648;1.214;2022-07-01T09:56:01;10.33;;;3.70;;
66380;SDS011;53177;52.648;1.214;2022-07-01T09:58:27;6.90;;;2.80;;
66380;SDS011;53177;52.648;1.214;2022-07-01T10:00:53;5.47;;;2.50;;
66380;SDS011;53177;52.648;1.214;2022-07-01T10:03:20;4.47;;;2.20;;
66380;SDS011;53177;52.648;1.214;2022-07-01T10:05:57;4.85;;;2.40;;
66380;SDS011;53177;52.648;1.214;2022-07-01T10:11:52;8.70;;;3.35;;
66380;SDS011;53177;52.648;1.214;2022-07-01T10:14:29;6.00;;;2.40;;
66380;SDS011;53177;52.648;1.214;2022-07-01T10:16:56;4.88;;;2.40;;
66380;SDS011;53177;52.648;1.214;2022-07-01T10:21:49;7.38;;;2.90;;
66380;SDS011;53177;52.648;1.214;2022-07-01T10:24:16;10.43;;;3.22;;
66380;SDS011;53177;52.648;1.214;2022-07-01T10:26:43;4.70;;;1.90;;
66380;SDS011;53177;52.648;1.214;2022-07-01T10:29:28;4.22;;;1.90;;
66380;SDS011;53177;52.648;1.214;2022-07-01T10:31:59;5.90;;;2.10;;
66380;SDS011;53177;52.648;1.214;2022-07-01T10:34:25;5.00;;;1.92;;
66380;SDS011;53177;52.648;1.214;2022-07-01T10:37:08;6.00;;;2.45;;
66380;SDS011;53177;52.648;1.214;2022-07-01T10:42:19;4.65;;;1.90;;
66380;SDS011;53177;52.648;1.214;2022-07-01T10:45:04;4.75;;;2.05;;
66380;SDS011;53177;52.648;1.214;2022-07-01T10:47:35;23.23;;;7.05;;
66380;SDS011;53177;52.648;1.214;2022-07-01T10:50:06;9.73;;;3.58;;
66380;SDS011;53177;52.648;1.214;2022-07-01T10:52:36;7.83;;;2.97;;
66380;SDS011;53177;52.648;1.214;2022-07-01T10:55:04;12.23;;;3.75;;
66380;SDS011;53177;52.648;1.214;2022-07-01T10:57:32;5.22;;;2.30;;
66380;SDS011;53177;52.648;1.214;2022-07-01T11:05:03;4.13;;;1.77;;
66380;SDS011;53177;52.648;1.214;2022-07-01T11:07:33;5.20;;;1.73;;
66380;SDS011;53177;52.648;1.214;2022-07-01T11:10:00;5.30;;;2.20;;
66380;SDS011;53177;52.648;1.214;2022-07-01T11:12:28;11.07;;;3.90;;
66380;SDS011;53177;52.648;1.214;2022-07-01T11:14:54;5.72;;;2.00;;
66380;SDS011;53177;52.648;1.214;2022-07-01T11:17:22;5.05;;;2.00;;
66380;SDS011;53177;52.648;1.214;2022-07-01T11:19:49;6.03;;;2.30;;
66380;SDS011;53177;52.648;1.214;2022-07-01T11:22:19;4.97;;;1.80;;
66380;SDS011;53177;52.648;1.214;2022-07-01T11:24:45;6.05;;;1.75;;
66380;SDS011;53177;52.648;1.214;2022-07-01T11:27:11;5.32;;;2.15;;
66380;SDS011;53177;52.648;1.214;2022-07-01T11:29:36;9.43;;;3.10;;
66380;SDS011;53177;52.648;1.214;2022-07-01T11:32:02;4.63;;;1.80;;
66380;SDS011;53177;52.648;1.214;2022-07-01T11:34:28;6.70;;;2.40;;
66380;SDS011;53177;52.648;1.214;2022-07-01T11:36:55;7.40;;;2.30;;
66380;SDS011;53177;52.648;1.214;2022-07-01T11:39:39;6.07;;;1.90;;
66380;SDS011;53177;52.648;1.214;2022-07-01T11:42:07;3.63;;;1.40;;
66380;SDS011;53177;52.648;1.214;2022-07-01T11:44:35;7.28;;;2.50;;
66380;SDS011;53177;52.648;1.214;2022-07-01T11:47:06;3.53;;;1.40;;
66380;SDS011;53177;52.648;1.214;2022-07-01T11:49:33;3.80;;;1.30;;
66380;SDS011;53177;52.648;1.214;2022-07-01T11:52:07;5.38;;;1.58;;
66380;SDS011;53177;52.648;1.214;2022-07-01T11:54:44;3.80;;;1.37;;
66380;SDS011;53177;52.648;1.214;2022-07-01T11:57:15;6.22;;;2.00;;
66380;SDS011;53177;52.648;1.214;2022-07-01T11:59:42;5.25;;;1.70;;
66380;SDS011;53177;52.648;1.214;2022-07-01T12:02:09;7.75;;;2.75;;
66380;SDS011;53177;52.648;1.214;2022-07-01T12:04:37;5.40;;;1.52;;
66380;SDS011;53177;52.648;1.214;2022-07-01T12:07:03;12.87;;;3.80;;
66380;SDS011;53177;52.648;1.214;2022-07-01T12:09:29;6.57;;;2.03;;
66380;SDS011;53177;52.648;1.214;2022-07-01T12:11:55;4.07;;;1.47;;
66380;SDS011;53177;52.648;1.214;2022-07-01T12:14:28;3.50;;;1.30;;
66380;SDS011;53177;52.648;1.214;2022-07-01T12:17:02;8.75;;;2.60;;
66380;SDS011;53177;52.648;1.214;2022-07-01T12:19:40;7.82;;;2.42;;
66380;SDS011;53177;52.648;1.214;2022-07-01T12:22:14;6.97;;;2.13;;
66380;SDS011;53177;52.648;1.214;2022-07-01T12:24:41;7.45;;;2.17;;
66380;SDS011;53177;52.648;1.214;2022-07-01T12:27:07;8.10;;;2.10;;
66380;SDS011;53177;52.648;1.214;2022-07-01T12:32:03;3.15;;;1.25;;
66380;SDS011;53177;52.648;1.214;2022-07-01T12:40:22;4.00;;;1.10;;
66380;SDS011;53177;52.648;1.214;2022-07-01T12:42:33;12.20;;;3.47;;
66380;SDS011;53177;52.648;1.214;2022-07-01T12:45:02;4.13;;;1.27;;
66380;SDS011;53177;52.648;1.214;2022-07-01T12:47:31;5.00;;;1.30;;
66380;SDS011;53177;52.648;1.214;2022-07-01T12:50:10;4.22;;;1.17;;
66380;SDS011;53177;52.648;1.214;2022-07-01T12:52:57;10.48;;;3.22;;
66380;SDS011;53177;52.648;1.214;2022-07-01T12:55:43;6.68;;;1.90;;
66380;SDS011;53177;52.648;1.214;2022-07-01T12:58:14;4.55;;;1.40;;
66380;SDS011;53177;52.648;1.214;2022-07-01T13:00:42;3.67;;;1.10;;
66380;SDS011;53177;52.648;1.214;2022-07-01T13:03:09;4.55;;;1.30;;
66380;SDS011;53177;52.648;1.214;2022-07-01T13:05:36;3.28;;;1.00;;
66380;SDS011;53177;52.648;1.214;2022-07-01T13:08:04;5.78;;;1.90;;
66380;SDS011;53177;52.648;1.214;2022-07-01T13:10:30;4.68;;;2.00;;
66380;SDS011;53177;52.648;1.214;2022-07-01T13:12:56;5.30;;;1.90;;
66380;SDS011;53177;52.648;1.214;2022-07-01T13:15:22;4.80;;;2.00;;
66380;SDS011;53177;52.648;1.214;2022-07-01T13:17:48;7.33;;;2.07;;
66380;SDS011;53177;52.648;1.214;2022-07-01T13:20:14;4.72;;;2.25;;
66380;SDS011;53177;52.648;1.214;2022-07-01T13:22:42;6.88;;;2.15;;
66380;SDS011;53177;52.648;1.214;2022-07-01T13:25:08;6.63;;;2.50;;
66380;SDS011;53177;52.648;1.214;2022-07-01T13:27:35;6.65;;;3.05;;
66380;SDS011;53177;52.648;1.214;2022-07-01T13:30:01;6.77;;;2.70;;
66380;SDS011;53177;52.648;1.214;2022-07-01T13:32:29;6.47;;;3.50;;
66380;SDS011;53177;52.648;1.214;2022-07-01T13:34:54;5.73;;;3.00;;
66380;SDS011;53177;52.648;1.214;2022-07-01T13:37:20;4.88;;;2.25;;
66380;SDS011;53177;52.648;1.214;2022-07-01T13:39:46;5.47;;;2.40;;
66380;SDS011;53177;52.648;1.214;2022-07-01T13:42:12;4.60;;;2.15;;
66380;SDS011;53177;52.648;1.214;2022-07-01T13:44:37;5.45;;;2.40;;
66380;SDS011;53177;52.648;1.214;2022-07-01T13:47:03;5.00;;;2.10;;
66380;SDS011;53177;52.648;1.214;2022-07-01T13:49:32;4.72;;;2.40;;
66380;SDS011;53177;52.648;1.214;2022-07-01T13:51:57;5.57;;;2.50;;
66380;SDS011;53177;52.648;1.214;2022-07-01T13:54:23;5.77;;;2.77;;
66380;SDS011;53177;52.648;1.214;2022-07-01T13:56:48;4.47;;;2.40;;
66380;SDS011;53177;52.648;1.214;2022-07-01T13:59:14;4.77;;;2.33;;
66380;SDS011;53177;52.648;1.214;2022-07-01T14:01:39;4.47;;;2.30;;
66380;SDS011;53177;52.648;1.214;2022-07-01T14:04:05;4.70;;;2.30;;
66380;SDS011;53177;52.648;1.214;2022-07-01T14:06:30;4.83;;;2.10;;
66380;SDS011;53177;52.648;1.214;2022-07-01T14:08:56;5.07;;;2.30;;
66380;SDS011;53177;52.648;1.214;2022-07-01T14:11:22;5.27;;;2.33;;
66380;SDS011;53177;52.648;1.214;2022-07-01T14:13:47;4.38;;;1.70;;
66380;SDS011;53177;52.648;1.214;2022-07-01T14:16:13;5.17;;;1.90;;
66380;SDS011;53177;52.648;1.214;2022-07-01T14:18:38;14.07;;;4.17;;
66380;SDS011;53177;52.648;1.214;2022-07-01T14:21:04;7.30;;;2.42;;
66380;SDS011;53177;52.648;1.214;2022-07-01T14:23:32;28.43;;;8.87;;
66380;SDS011;53177;52.648;1.214;2022-07-01T14:25:58;15.07;;;4.25;;
66380;SDS011;53177;52.648;1.214;2022-07-01T14:28:24;4.93;;;1.67;;
66380;SDS011;53177;52.648;1.214;2022-07-01T14:30:50;10.13;;;3.05;;
66380;SDS011;53177;52.648;1.214;2022-07-01T14:33:16;4.33;;;1.37;;
66380;SDS011;53177;52.648;1.214;2022-07-01T14:35:43;3.90;;;1.20;;
66380;SDS011;53177;52.648;1.214;2022-07-01T14:38:09;4.53;;;1.10;;
66380;SDS011;53177;52.648;1.214;2022-07-01T14:40:35;4.23;;;1.40;;
66380;SDS011;53177;52.648;1.214;2022-07-01T14:43:01;11.85;;;3.42;;
66380;SDS011;53177;52.648;1.214;2022-07-01T14:45:28;16.63;;;4.83;;
66380;SDS011;53177;52.648;1.214;2022-07-01T14:47:53;11.35;;;4.20;;
66380;SDS011;53177;52.648;1.214;2022-07-01T14:50:19;7.27;;;2.20;;
66380;SDS011;53177;52.648;1.214;2022-07-01T14:52:46;9.07;;;2.80;;
66380;SDS011;53177;52.648;1.214;2022-07-01T14:55:13;6.88;;;2.13;;
66380;SDS011;53177;52.648;1.214;2022-07-01T14:57:38;5.20;;;1.20;;
66380;SDS011;53177;52.648;1.214;2022-07-01T15:00:05;7.80;;;2.63;;
66380;SDS011;53177;52.648;1.214;2022-07-01T15:02:32;5.05;;;1.50;;
66380;SDS011;53177;52.648;1.214;2022-07-01T15:04:57;5.57;;;1.87;;
66380;SDS011;53177;52.648;1.214;2022-07-01T15:07:23;3.50;;;1.10;;
66380;SDS011;53177;52.648;1.214;2022-07-01T15:09:53;4.90;;;1.38;;
66380;SDS011;53177;52.648;1.214;2022-07-01T15:12:21;6.67;;;2.13;;
66380;SDS011;53177;52.648;1.214;2022-07-01T15:14:46;5.68;;;1.80;;